Time;durP1;ratioP1;P1;durP2;ratioP2;P2;SDS_P1;SDS_P2;PMS_P1;PMS_P2;Temp;Humidity;BMP_temperature;BMP_pressure;BME280_temperature;BME280_humidity;BME280_pressure;Samples;Min_cycle;Max_cycle;Signal;HPM_P1;HPM_P2
2021/06/06 00:00:19;;;;;;;7.07;6.47;;;21.10;1.00;;;;;;5056598;28;20455;-68
2021/06/06 00:02:45;;;;;;;7.20;6.60;;;21.00;1.00;;;;;;5057007;28;20454;-69
2021/06/06 00:05:13;;;;;;;10.27;5.83;;;21.00;1.00;;;;;;5056851;28;20459;-69
2021/06/06 00:07:41;;;;;;;6.10;5.60;;;20.90;1.00;;;;;;5056769;28;20483;-70
2021/06/06 00:10:08;;;;;;;5.80;5.30;;;20.90;1.00;;;;;;5057103;28;20459;-70
2021/06/06 00:12:35;;;;;;;6.93;6.17;;;20.80;1.00;;;;;;5056617;28;20482;-70
2021/06/06 00:15:04;;;;;;;7.43;6.10;;;20.80;1.00;;;;;;5056488;28;20459;-70
2021/06/06 00:17:30;;;;;;;6.97;6.20;;;20.80;1.00;;;;;;5056454;28;20462;-70
2021/06/06 00:19:56;;;;;;;7.00;6.30;;;20.70;1.00;;;;;;5056623;28;20764;-70
2021/06/06 00:22:22;;;;;;;7.73;6.30;;;20.70;1.00;;;;;;5056696;28;20459;-70
2021/06/06 00:24:50;;;;;;;6.70;6.10;;;20.70;1.00;;;;;;5056688;28;20533;-70
2021/06/06 00:27:16;;;;;;;7.37;6.67;;;20.60;1.00;;;;;;5056261;28;20479;-70
2021/06/06 00:29:45;;;;;;;6.27;5.73;;;20.60;1.00;;;;;;5056510;28;20494;-69
2021/06/06 00:32:12;;;;;;;6.90;6.30;;;20.60;1.00;;;;;;5056349;28;20529;-70
2021/06/06 00:34:38;;;;;;;8.67;6.90;;;20.60;1.00;;;;;;5056102;28;20487;-70
2021/06/06 00:37:04;;;;;;;7.73;7.07;;;20.50;1.00;;;;;;5056264;28;20496;-69
2021/06/06 00:39:30;;;;;;;7.93;6.50;;;20.50;1.00;;;;;;5056693;28;20482;-70
2021/06/06 00:41:59;;;;;;;8.57;7.03;;;20.40;1.00;;;;;;5056212;28;20856;-70
2021/06/06 00:44:26;;;;;;;8.33;6.80;;;20.40;1.00;;;;;;5055582;28;20966;-70
2021/06/06 00:46:53;;;;;;;6.30;5.80;;;20.30;1.00;;;;;;5056151;28;20483;-70
2021/06/06 00:49:20;;;;;;;7.13;6.50;;;20.30;1.00;;;;;;5056946;28;20513;-70
2021/06/06 00:51:49;;;;;;;7.07;6.47;;;20.30;1.00;;;;;;5056188;28;20456;-70
2021/06/06 00:54:20;;;;;;;7.20;6.60;;;20.20;1.00;;;;;;5055958;28;20469;-68
2021/06/06 00:56:50;;;;;;;6.53;5.93;;;20.20;1.00;;;;;;5055861;28;20497;-69
2021/06/06 00:59:22;;;;;;;6.43;5.83;;;20.10;1.00;;;;;;5055686;28;20470;-69
2021/06/06 01:01:48;;;;;;;7.50;6.60;;;20.10;1.00;;;;;;5056575;28;20443;-68
2021/06/06 01:04:17;;;;;;;6.27;5.67;;;20.10;1.00;;;;;;5055523;28;20455;-68
2021/06/06 01:06:45;;;;;;;6.80;5.93;;;20.00;1.00;;;;;;5055837;28;20505;-69
2021/06/06 01:09:13;;;;;;;9.90;8.00;;;20.10;1.00;;;;;;5055862;28;20521;-69
2021/06/06 01:11:44;;;;;;;6.70;6.10;;;20.00;1.00;;;;;;5056029;28;20467;-69
2021/06/06 01:14:16;;;;;;;7.93;7.23;;;20.00;1.00;;;;;;5056082;28;20439;-69
2021/06/06 01:16:49;;;;;;;7.03;6.27;;;20.00;1.00;;;;;;5055253;28;20744;-69
2021/06/06 01:19:27;;;;;;;7.37;6.57;;;20.00;1.00;;;;;;5055960;28;20509;-70
2021/06/06 01:22:08;;;;;;;8.20;6.53;;;19.90;1.00;;;;;;5055647;28;20518;-70
2021/06/06 01:24:39;;;;;;;6.53;6.03;;;19.90;1.00;;;;;;5055570;28;20440;-70
2021/06/06 01:27:08;;;;;;;7.13;6.23;;;19.90;1.00;;;;;;5055522;28;20467;-69
2021/06/06 01:29:43;;;;;;;8.00;7.00;;;19.90;1.00;;;;;;5055291;28;20455;-68
2021/06/06 01:32:17;;;;;;;7.80;7.07;;;19.80;1.00;;;;;;5055505;28;20438;-69
2021/06/06 01:34:48;;;;;;;7.03;6.43;;;19.80;1.00;;;;;;5055095;28;20486;-69
2021/06/06 01:37:17;;;;;;;9.37;6.80;;;19.80;1.00;;;;;;5055339;28;20451;-69
2021/06/06 01:39:48;;;;;;;7.00;6.50;;;19.70;1.00;;;;;;5055382;28;20490;-69
2021/06/06 01:42:19;;;;;;;8.30;7.17;;;19.70;1.00;;;;;;5055299;28;20440;-69
2021/06/06 01:44:48;;;;;;;7.93;7.13;;;19.60;1.00;;;;;;5054907;28;20458;-69
2021/06/06 01:47:17;;;;;;;6.93;6.33;;;19.60;1.00;;;;;;5055129;28;20483;-69
2021/06/06 01:49:48;;;;;;;10.63;6.80;;;19.60;1.00;;;;;;5055509;28;20466;-69
2021/06/06 01:52:16;;;;;;;9.77;6.83;;;19.50;1.00;;;;;;5055004;28;20754;-69
2021/06/06 01:54:44;;;;;;;7.33;6.73;;;19.50;1.00;;;;;;5055067;28;20844;-69
2021/06/06 01:57:15;;;;;;;8.97;7.27;;;19.50;1.00;;;;;;5054955;28;20536;-69
2021/06/06 01:59:44;;;;;;;8.87;7.53;;;19.50;1.00;;;;;;5055706;28;20482;-69
2021/06/06 02:02:11;;;;;;;8.60;7.80;;;19.50;1.00;;;;;;5055195;28;20455;-69
2021/06/06 02:04:38;;;;;;;7.33;6.63;;;19.50;1.00;;;;;;5055786;28;20465;-69
2021/06/06 02:07:09;;;;;;;7.80;7.03;;;19.40;1.00;;;;;;5056817;28;20597;-69
2021/06/06 02:09:42;;;;;;;8.17;7.03;;;19.40;1.00;;;;;;5061556;28;20455;-69
2021/06/06 02:12:11;;;;;;;7.40;6.70;;;19.40;1.00;;;;;;5055923;28;20447;-69
2021/06/06 02:14:41;;;;;;;7.83;7.13;;;19.40;3.20;;;;;;5054935;28;20459;-69
2021/06/06 02:17:12;;;;;;;8.57;7.20;;;19.30;21.00;;;;;;5054890;28;20451;-69
2021/06/06 02:19:41;;;;;;;7.70;7.10;;;19.30;30.00;;;;;;5054770;28;20439;-68
2021/06/06 02:23:59;;;;;;;7.93;7.23;;;19.30;42.60;;;;;;5123391;27;48982;-69
2021/06/06 02:26:30;;;;;;;10.03;7.57;;;19.10;91.10;;;;;;5092475;28;20512;-69
2021/06/06 02:29:03;;;;;;;7.90;7.20;;;19.10;99.90;;;;;;5092431;28;20499;-69
2021/06/06 02:31:35;;;;;;;8.83;7.67;;;19.10;99.90;;;;;;5092262;28;20442;-69
2021/06/06 02:34:11;;;;;;;7.70;7.00;;;19.00;99.90;;;;;;5091792;28;20457;-69
2021/06/06 02:36:40;;;;;;;11.10;6.97;;;19.00;99.90;;;;;;5091940;28;20437;-69
2021/06/06 02:39:11;;;;;;;8.20;7.50;;;19.00;99.90;;;;;;5092248;28;20457;-69
2021/06/06 02:41:45;;;;;;;8.00;7.30;;;19.00;99.90;;;;;;5091629;28;20441;-71
2021/06/06 02:44:15;;;;;;;8.60;7.70;;;19.00;99.90;;;;;;5091985;28;20549;-69
2021/06/06 02:46:43;;;;;;;7.80;7.03;;;18.90;99.90;;;;;;5092349;28;20875;-69
2021/06/06 02:49:12;;;;;;;8.40;7.70;;;18.90;99.90;;;;;;5092009;28;20453;-69
2021/06/06 02:51:42;;;;;;;8.47;7.80;;;18.90;99.90;;;;;;5091958;28;20453;-69
2021/06/06 02:54:15;;;;;;;8.00;7.40;;;18.90;99.90;;;;;;5091788;28;20514;-69
2021/06/06 02:56:46;;;;;;;8.10;7.40;;;18.90;99.90;;;;;;5092013;28;20829;-70
2021/06/06 02:59:17;;;;;;;9.37;7.93;;;18.90;99.90;;;;;;5091810;28;20437;-69
2021/06/06 03:01:46;;;;;;;7.80;7.10;;;18.90;99.90;;;;;;5091660;28;20438;-68
2021/06/06 03:04:17;;;;;;;9.03;8.17;;;18.90;99.90;;;;;;5091669;28;20482;-69
2021/06/06 03:06:52;;;;;;;8.70;7.90;;;18.90;99.90;;;;;;5091391;28;20451;-67
2021/06/06 03:09:20;;;;;;;8.20;7.40;;;18.90;99.90;;;;;;5091878;28;20460;-68
2021/06/06 03:11:50;;;;;;;8.43;7.67;;;18.90;99.90;;;;;;5091724;28;20450;-68
2021/06/06 03:14:20;;;;;;;8.53;7.73;;;18.90;99.90;;;;;;5091491;28;20442;-69
2021/06/06 03:16:54;;;;;;;8.87;8.00;;;18.90;99.90;;;;;;5091472;28;20926;-68
2021/06/06 03:19:22;;;;;;;8.47;7.67;;;19.00;99.90;;;;;;5091477;28;20916;-69
2021/06/06 03:21:50;;;;;;;9.37;8.47;;;19.00;99.90;;;;;;5090852;28;20457;-69
2021/06/06 03:24:22;;;;;;;8.80;7.90;;;19.00;99.90;;;;;;5091060;28;20442;-69
2021/06/06 03:26:50;;;;;;;9.23;8.43;;;19.00;99.90;;;;;;5091288;28;20442;-69
2021/06/06 03:29:21;;;;;;;9.30;8.50;;;19.00;99.90;;;;;;5090979;28;20500;-69
2021/06/06 03:31:54;;;;;;;9.33;8.40;;;19.00;99.90;;;;;;5091245;28;20774;-68
2021/06/06 03:34:20;;;;;;;9.47;8.03;;;19.00;99.90;;;;;;5083244;28;20539;-69
2021/06/06 03:36:47;;;;;;;9.17;8.40;;;19.10;99.90;;;;;;5077611;28;20454;-69
2021/06/06 03:39:17;;;;;;;8.73;7.83;;;19.10;99.90;;;;;;5077538;28;20464;-69
2021/06/06 03:41:46;;;;;;;9.70;8.70;;;19.10;99.90;;;;;;5077098;28;20909;-68
2021/06/06 03:44:12;;;;;;;12.00;8.13;;;19.10;99.90;;;;;;5077375;28;20454;-68
2021/06/06 03:46:40;;;;;;;9.90;9.00;;;19.20;99.90;;;;;;5077687;28;20519;-69
2021/06/06 03:49:07;;;;;;;10.23;9.03;;;19.20;99.90;;;;;;5077385;28;20462;-68
2021/06/06 03:51:35;;;;;;;9.17;8.30;;;19.20;99.90;;;;;;5077003;28;20465;-69
2021/06/06 03:54:01;;;;;;;10.40;8.67;;;19.20;99.90;;;;;;5076887;28;20946;-68
2021/06/06 03:56:28;;;;;;;9.10;8.20;;;19.30;99.90;;;;;;5077027;28;20557;-68
2021/06/06 03:58:55;;;;;;;9.43;8.67;;;19.30;99.90;;;;;;5077183;28;20790;-69
2021/06/06 04:01:21;;;;;;;9.97;9.07;;;19.30;99.90;;;;;;5076908;28;20466;-68
2021/06/06 04:03:48;;;;;;;9.20;8.30;;;19.30;99.90;;;;;;5077065;28;20486;-68
2021/06/06 04:06:16;;;;;;;9.53;8.63;;;19.40;87.80;;;;;;5077115;28;20518;-69
2021/06/06 04:08:42;;;;;;;9.67;8.73;;;19.40;85.20;;;;;;5076977;28;20462;-68
2021/06/06 04:11:09;;;;;;;8.80;8.00;;;19.40;80.40;;;;;;5077109;28;20543;-69
2021/06/06 04:13:35;;;;;;;9.20;8.43;;;19.40;71.40;;;;;;5076807;28;20454;-68
2021/06/06 04:16:05;;;;;;;9.27;8.37;;;19.40;89.50;;;;;;5076788;28;20788;-68
2021/06/06 04:18:32;;;;;;;10.63;8.60;;;19.50;72.10;;;;;;5076829;28;20512;-68
2021/06/06 04:21:01;;;;;;;9.57;8.77;;;19.50;74.10;;;;;;5076532;28;20454;-68
2021/06/06 04:23:28;;;;;;;10.00;9.00;;;19.60;75.90;;;;;;5076336;28;20482;-69
2021/06/06 04:25:54;;;;;;;9.67;8.77;;;19.60;46.70;;;;;;5076340;28;20545;-69
2021/06/06 04:28:24;;;;;;;11.97;10.77;;;19.60;41.30;;;;;;5076602;28;20462;-69
2021/06/06 04:30:52;;;;;;;10.63;9.37;;;19.60;49.50;;;;;;5076683;28;20786;-68
2021/06/06 04:33:19;;;;;;;10.50;9.47;;;19.60;41.20;;;;;;5076249;28;20941;-69
2021/06/06 04:35:46;;;;;;;9.40;8.70;;;19.70;28.50;;;;;;5076602;28;20482;-68
2021/06/06 04:38:14;;;;;;;10.20;9.07;;;19.70;28.20;;;;;;5076588;28;20458;-69
2021/06/06 04:40:41;;;;;;;9.70;8.90;;;19.70;31.90;;;;;;5076520;28;20454;-69
2021/06/06 04:43:08;;;;;;;9.97;9.17;;;19.70;20.50;;;;;;5076303;28;20473;-67
2021/06/06 04:45:34;;;;;;;10.80;9.80;;;19.80;20.90;;;;;;5075264;28;20454;-68
2021/06/06 04:48:12;;;;;;;9.60;8.70;;;19.80;13.30;;;;;;5076122;28;20542;-68
2021/06/06 04:50:40;;;;;;;11.43;9.77;;;19.80;18.00;;;;;;5076318;28;20491;-68
2021/06/06 04:53:07;;;;;;;10.47;9.47;;;19.80;9.90;;;;;;5076041;28;20462;-68
2021/06/06 04:55:33;;;;;;;10.17;9.27;;;19.80;21.40;;;;;;5076194;28;20454;-67
2021/06/06 04:58:00;;;;;;;10.30;9.30;;;19.80;16.50;;;;;;5075664;28;20914;-67
2021/06/06 05:00:29;;;;;;;10.43;9.53;;;19.90;24.10;;;;;;5076240;28;20462;-67
2021/06/06 05:02:56;;;;;;;9.47;8.67;;;19.90;27.70;;;;;;5075523;28;20974;-67
2021/06/06 05:05:23;;;;;;;10.40;8.90;;;20.00;32.40;;;;;;5075983;28;20539;-68
2021/06/06 05:07:53;;;;;;;12.93;9.40;;;20.00;17.00;;;;;;5075829;28;20458;-67
2021/06/06 05:10:21;;;;;;;11.10;10.00;;;20.10;5.40;;;;;;5075336;28;20941;-68
2021/06/06 05:12:47;;;;;;;10.30;9.40;;;20.20;1.00;;;;;;5075725;28;20454;-68
2021/06/06 05:15:15;;;;;;;11.47;10.47;;;20.20;1.00;;;;;;5075475;28;20462;-68
2021/06/06 05:17:41;;;;;;;11.57;10.40;;;20.30;1.00;;;;;;5075606;28;20457;-68
2021/06/06 05:20:10;;;;;;;11.17;10.07;;;20.30;1.00;;;;;;5075817;28;20458;-68
2021/06/06 05:22:37;;;;;;;10.73;9.83;;;20.40;1.00;;;;;;5075052;28;20497;-68
2021/06/06 05:25:06;;;;;;;10.97;9.97;;;20.40;1.00;;;;;;5075462;28;20458;-68
2021/06/06 05:27:33;;;;;;;10.90;9.90;;;20.50;1.00;;;;;;5075179;28;20792;-68
2021/06/06 05:29:59;;;;;;;10.87;9.97;;;20.50;1.00;;;;;;5075146;28;20458;-68
2021/06/06 05:32:26;;;;;;;11.27;10.13;;;20.50;1.00;;;;;;5075227;28;20473;-68
2021/06/06 05:34:52;;;;;;;10.67;9.77;;;20.60;1.00;;;;;;5075174;28;20508;-68
2021/06/06 05:37:18;;;;;;;10.40;9.40;;;20.60;1.00;;;;;;5074650;28;20458;-68
2021/06/06 05:39:45;;;;;;;10.77;9.77;;;20.60;1.00;;;;;;5075985;28;20458;-68
2021/06/06 05:42:12;;;;;;;11.03;10.03;;;20.70;1.00;;;;;;5074700;28;20462;-68
2021/06/06 05:44:41;;;;;;;11.23;9.73;;;20.80;1.00;;;;;;5074792;28;20461;-68
2021/06/06 05:47:08;;;;;;;10.93;9.97;;;20.80;1.00;;;;;;5075242;28;20492;-68
2021/06/06 05:49:37;;;;;;;11.70;10.70;;;20.80;1.00;;;;;;5075152;28;20462;-67
2021/06/06 05:52:04;;;;;;;12.70;11.17;;;20.90;1.00;;;;;;5075205;28;20454;-69
2021/06/06 05:54:31;;;;;;;11.60;10.60;;;21.00;4.40;;;;;;5074930;28;20451;-69
2021/06/06 05:56:58;;;;;;;12.23;10.00;;;21.00;7.30;;;;;;5076295;28;20458;-69
2021/06/06 05:59:26;;;;;;;12.00;10.63;;;21.00;11.10;;;;;;5076250;28;20466;-69
2021/06/06 06:01:53;;;;;;;12.10;11.00;;;21.10;13.80;;;;;;5076456;28;20522;-69
2021/06/06 06:04:19;;;;;;;11.70;10.60;;;21.20;18.70;;;;;;5074643;28;20818;-68
2021/06/06 06:06:45;;;;;;;12.30;11.20;;;21.30;30.30;;;;;;5074977;28;20781;-68
2021/06/06 06:09:11;;;;;;;11.07;10.13;;;21.30;33.40;;;;;;5074858;28;20471;-68
2021/06/06 06:11:37;;;;;;;11.60;10.60;;;21.40;38.70;;;;;;5074380;28;20481;-68
2021/06/06 06:14:04;;;;;;;12.97;11.90;;;21.40;35.70;;;;;;5074542;28;20454;-69
2021/06/06 06:16:36;;;;;;;11.80;10.70;;;21.50;38.40;;;;;;5075173;28;20458;-69
2021/06/06 06:19:03;;;;;;;12.57;10.77;;;21.60;33.50;;;;;;5075740;28;20442;-69
2021/06/06 06:21:31;;;;;;;11.23;10.23;;;21.60;36.30;;;;;;5074637;28;20458;-69
2021/06/06 06:23:57;;;;;;;11.47;10.53;;;21.60;40.60;;;;;;5074744;28;20829;-69
2021/06/06 06:26:24;;;;;;;11.67;10.67;;;21.70;43.70;;;;;;5074889;28;20941;-69
2021/06/06 06:28:50;;;;;;;11.20;10.20;;;21.80;37.00;;;;;;5074566;28;20455;-69
2021/06/06 06:31:17;;;;;;;11.73;10.70;;;21.90;29.30;;;;;;5075191;28;20473;-69
2021/06/06 06:33:45;;;;;;;10.90;10.00;;;22.00;25.40;;;;;;5075535;28;20545;-68
2021/06/06 06:36:13;;;;;;;11.33;10.27;;;22.10;19.40;;;;;;5075391;28;20508;-68
2021/06/06 06:38:40;;;;;;;12.00;11.00;;;22.20;16.20;;;;;;5075322;28;20473;-68
2021/06/06 06:41:06;;;;;;;11.60;10.23;;;22.30;11.20;;;;;;5075385;28;20464;-68
2021/06/06 06:43:33;;;;;;;10.90;10.00;;;22.30;7.20;;;;;;5075102;28;20478;-68
2021/06/06 06:45:59;;;;;;;11.93;11.03;;;22.40;2.30;;;;;;5075175;28;20519;-68
2021/06/06 06:48:28;;;;;;;10.50;9.60;;;22.50;1.00;;;;;;5074720;28;20462;-68
2021/06/06 06:50:57;;;;;;;12.67;10.30;;;22.60;1.00;;;;;;5074769;28;21000;-69
2021/06/06 06:53:24;;;;;;;11.47;10.47;;;22.60;1.00;;;;;;5074792;28;20454;-70
2021/06/06 06:55:51;;;;;;;11.30;10.40;;;22.70;1.00;;;;;;5075252;28;20454;-69
2021/06/06 06:58:18;;;;;;;11.60;10.60;;;22.80;1.00;;;;;;5075619;28;20458;-67
2021/06/06 07:00:47;;;;;;;10.67;9.20;;;23.00;1.00;;;;;;5075621;28;20469;-68
2021/06/06 07:03:15;;;;;;;11.60;10.53;;;23.10;1.00;;;;;;5074149;28;20863;-68
2021/06/06 07:05:43;;;;;;;11.60;10.60;;;23.20;1.00;;;;;;5074478;28;20462;-68
2021/06/06 07:08:13;;;;;;;10.90;10.00;;;23.20;1.00;;;;;;5074879;28;20462;-68
2021/06/06 07:10:42;;;;;;;11.30;10.40;;;23.30;1.00;;;;;;5078633;28;20438;-68
2021/06/06 07:13:09;;;;;;;10.37;9.57;;;23.20;1.00;;;;;;5079079;28;20469;-69
2021/06/06 07:15:36;;;;;;;14.23;9.80;;;23.30;1.00;;;;;;5078511;28;20454;-68
2021/06/06 07:18:03;;;;;;;11.57;10.50;;;23.40;1.00;;;;;;5079756;28;20910;-68
2021/06/06 07:20:35;;;;;;;10.43;9.53;;;23.50;1.00;;;;;;5078024;28;20457;-69
2021/06/06 07:23:04;;;;;;;10.93;9.90;;;23.60;1.00;;;;;;5078614;28;20584;-69
2021/06/06 07:25:31;;;;;;;10.27;9.33;;;23.70;1.00;;;;;;5080455;28;20458;-69
2021/06/06 07:28:00;;;;;;;11.10;9.20;;;23.80;1.00;;;;;;5078476;28;20465;-69
2021/06/06 07:30:30;;;;;;;9.80;9.00;;;23.90;1.00;;;;;;5078493;28;20461;-68
2021/06/06 07:32:58;;;;;;;10.73;9.63;;;23.90;1.00;;;;;;5078703;28;20802;-68
2021/06/06 07:35:26;;;;;;;9.27;8.37;;;24.00;1.00;;;;;;5078320;28;20596;-68
2021/06/06 07:37:53;;;;;;;10.50;9.30;;;24.20;1.00;;;;;;5077705;28;20458;-69
2021/06/06 07:40:21;;;;;;;9.57;8.83;;;24.20;1.00;;;;;;5077836;28;20761;-69
2021/06/06 07:42:49;;;;;;;9.93;9.10;;;24.30;1.00;;;;;;5077507;28;20489;-69
2021/06/06 07:45:16;;;;;;;10.80;8.50;;;24.30;1.00;;;;;;5077731;28;20458;-69
2021/06/06 07:47:43;;;;;;;8.53;7.83;;;24.40;1.00;;;;;;5077463;28;20458;-69
2021/06/06 07:50:11;;;;;;;9.47;7.33;;;24.40;1.00;;;;;;5077168;28;20458;-69
2021/06/06 07:52:38;;;;;;;8.27;7.67;;;24.40;1.00;;;;;;5077586;28;20446;-68
2021/06/06 07:55:05;;;;;;;9.10;8.30;;;24.50;1.00;;;;;;5077533;28;20801;-68
2021/06/06 07:57:31;;;;;;;8.10;7.00;;;24.50;1.00;;;;;;5077983;28;20458;-68
2021/06/06 07:59:59;;;;;;;9.60;8.70;;;24.60;1.00;;;;;;5077361;28;20539;-68
2021/06/06 08:02:25;;;;;;;8.20;7.50;;;24.70;1.00;;;;;;5077166;28;20561;-69
2021/06/06 08:04:51;;;;;;;7.60;7.00;;;24.80;1.00;;;;;;5077191;28;20465;-69
2021/06/06 08:07:18;;;;;;;8.80;8.10;;;24.90;1.00;;;;;;5077327;28;20826;-69
2021/06/06 08:09:44;;;;;;;7.43;6.80;;;25.00;1.00;;;;;;5076869;28;20787;-67
2021/06/06 08:12:13;;;;;;;8.97;8.27;;;25.10;1.00;;;;;;5077475;28;20527;-68
2021/06/06 08:14:39;;;;;;;7.77;6.90;;;25.20;1.00;;;;;;5076714;28;20972;-68
2021/06/06 08:17:08;;;;;;;8.47;7.87;;;25.20;1.00;;;;;;5076939;28;20458;-68
2021/06/06 08:19:34;;;;;;;9.10;8.13;;;25.30;1.00;;;;;;5076697;28;20458;-68
2021/06/06 08:22:01;;;;;;;8.17;7.57;;;25.30;1.00;;;;;;5076586;28;20832;-69
2021/06/06 08:24:27;;;;;;;8.10;7.40;;;25.40;1.00;;;;;;5077039;28;20543;-68
2021/06/06 08:26:54;;;;;;;8.03;7.33;;;25.40;1.00;;;;;;5077171;28;20453;-69
2021/06/06 08:29:20;;;;;;;7.97;7.17;;;25.50;1.00;;;;;;5076592;28;20458;-69
2021/06/06 08:31:46;;;;;;;9.27;8.47;;;25.60;1.00;;;;;;5076348;28;20454;-69
2021/06/06 08:34:14;;;;;;;7.60;7.00;;;25.60;1.00;;;;;;5076168;28;20455;-69
2021/06/06 08:36:43;;;;;;;7.33;6.73;;;25.60;1.00;;;;;;5076450;28;20473;-69
2021/06/06 08:39:12;;;;;;;7.87;6.90;;;25.70;1.00;;;;;;5076481;28;20459;-68
2021/06/06 08:41:45;;;;;;;6.60;6.00;;;25.80;1.00;;;;;;5076494;28;20458;-68
2021/06/06 08:44:17;;;;;;;7.27;6.67;;;25.90;1.00;;;;;;5075958;28;20503;-69
2021/06/06 08:46:52;;;;;;;6.90;6.40;;;26.00;1.00;;;;;;5076085;28;20917;-68
2021/06/06 08:49:19;;;;;;;6.07;5.63;;;26.10;1.00;;;;;;5076521;28;20437;-68
2021/06/06 08:51:49;;;;;;;5.80;5.30;;;26.20;1.00;;;;;;5076295;28;20902;-69
2021/06/06 08:54:23;;;;;;;5.53;5.13;;;26.20;1.00;;;;;;5076051;28;20455;-69
2021/06/06 08:56:55;;;;;;;7.07;5.00;;;26.20;1.00;;;;;;5076260;28;20448;-69
2021/06/06 08:59:27;;;;;;;5.80;5.30;;;26.20;1.00;;;;;;5076098;28;20446;-69
2021/06/06 09:01:56;;;;;;;6.50;4.93;;;26.20;1.00;;;;;;5075802;28;20537;-69
2021/06/06 09:04:25;;;;;;;9.03;5.67;;;26.20;1.00;;;;;;5075754;28;20486;-69
2021/06/06 09:06:54;;;;;;;6.43;4.53;;;26.40;1.00;;;;;;5075661;28;20458;-69
2021/06/06 09:09:24;;;;;;;5.87;5.37;;;26.40;1.00;;;;;;5076065;28;20779;-69
2021/06/06 09:11:50;;;;;;;5.50;5.10;;;26.60;1.00;;;;;;5075656;28;20778;-68
2021/06/06 09:14:17;;;;;;;6.80;5.90;;;26.70;1.00;;;;;;5075991;28;20450;-68
2021/06/06 09:16:57;;;;;;;6.57;6.07;;;26.80;1.00;;;;;;5075806;28;20458;-68
2021/06/06 09:19:26;;;;;;;5.57;5.07;;;26.90;1.00;;;;;;5075351;28;20435;-68
2021/06/06 09:21:58;;;;;;;5.60;5.20;;;27.10;1.00;;;;;;5075360;28;20482;-68
2021/06/06 09:24:33;;;;;;;5.13;4.73;;;27.20;1.00;;;;;;5075406;28;20573;-68
2021/06/06 09:27:10;;;;;;;6.27;5.67;;;27.40;1.00;;;;;;5075991;28;20438;-69
2021/06/06 09:29:36;;;;;;;4.80;4.43;;;27.70;1.00;;;;;;5075380;28;20956;-70
2021/06/06 09:32:08;;;;;;;4.23;3.93;;;27.90;1.00;;;;;;5075174;28;20517;-70
2021/06/06 09:34:36;;;;;;;4.43;4.03;;;28.20;1.00;;;;;;5075492;28;20540;-70
2021/06/06 09:37:10;;;;;;;4.90;4.43;;;28.40;1.00;;;;;;5075211;28;20450;-70
2021/06/06 09:39:44;;;;;;;4.30;3.90;;;28.60;1.00;;;;;;5075323;28;20481;-70
2021/06/06 09:42:20;;;;;;;4.30;4.00;;;28.70;1.00;;;;;;5075108;28;20508;-70
2021/06/06 09:44:46;;;;;;;4.27;3.97;;;28.80;1.00;;;;;;5075931;28;20446;-71
2021/06/06 09:47:15;;;;;;;4.27;3.87;;;28.90;1.00;;;;;;5074750;28;20536;-70
2021/06/06 09:49:45;;;;;;;4.07;3.70;;;28.90;1.00;;;;;;5075163;28;20458;-70
2021/06/06 09:52:16;;;;;;;4.37;4.07;;;28.90;1.00;;;;;;5075037;28;20458;-70
2021/06/06 09:54:45;;;;;;;4.37;4.07;;;28.90;1.00;;;;;;5074834;28;20435;-70
2021/06/06 09:57:23;;;;;;;5.20;4.70;;;28.70;1.00;;;;;;5075255;28;20458;-69
2021/06/06 09:59:50;;;;;;;4.20;3.77;;;28.60;1.00;;;;;;5075828;28;20591;-71
2021/06/06 10:02:26;;;;;;;7.60;5.40;;;28.30;1.00;;;;;;5075417;28;20454;-71
2021/06/06 10:05:03;;;;;;;4.30;4.00;;;28.20;1.00;;;;;;5075288;28;20435;-70
2021/06/06 10:07:33;;;;;;;5.87;4.60;;;28.20;1.00;;;;;;5075252;28;20438;-71
2021/06/06 10:10:01;;;;;;;5.00;4.60;;;28.10;1.00;;;;;;5075326;28;20508;-71
2021/06/06 10:12:31;;;;;;;16.37;13.67;;;28.10;1.00;;;;;;5074896;28;20507;-71
2021/06/06 10:15:01;;;;;;;5.00;4.60;;;28.10;1.00;;;;;;5075028;28;20445;-70
2021/06/06 10:17:35;;;;;;;4.73;3.97;;;28.10;1.00;;;;;;5074816;28;20463;-71
2021/06/06 10:20:10;;;;;;;7.53;5.00;;;28.00;1.00;;;;;;5075270;28;20442;-71
2021/06/06 10:22:41;;;;;;;4.90;4.50;;;28.00;1.00;;;;;;5074074;28;20922;-70
2021/06/06 10:25:11;;;;;;;4.80;4.50;;;28.00;1.00;;;;;;5075215;28;20477;-70
2021/06/06 10:27:40;;;;;;;4.47;4.17;;;28.00;1.00;;;;;;5077431;28;20457;-69
2021/06/06 10:30:09;;;;;;;4.03;3.83;;;28.00;1.00;;;;;;5077351;28;20546;-71
2021/06/06 10:32:43;;;;;;;4.83;4.30;;;28.00;1.00;;;;;;5078558;28;20464;-70
2021/06/06 10:35:14;;;;;;;4.60;4.20;;;28.10;1.00;;;;;;5075213;28;20529;-69
2021/06/06 10:37:42;;;;;;;4.70;4.37;;;28.30;1.00;;;;;;5075000;28;20442;-68
2021/06/06 10:40:13;;;;;;;4.80;4.50;;;28.50;1.00;;;;;;5074492;28;20476;-68
2021/06/06 10:42:48;;;;;;;4.57;4.27;;;28.60;1.00;;;;;;5075005;28;20453;-69
2021/06/06 10:45:21;;;;;;;4.40;4.10;;;28.70;1.00;;;;;;5077962;28;20848;-69
2021/06/06 10:47:52;;;;;;;5.07;4.67;;;28.70;1.00;;;;;;5079103;28;20750;-70
2021/06/06 10:50:34;;;;;;;5.10;4.27;;;28.80;1.00;;;;;;5078953;28;20529;-69
2021/06/06 10:53:15;;;;;;;4.07;3.77;;;28.80;1.00;;;;;;5079380;28;20435;-69
2021/06/06 10:56:01;;;;;;;4.30;4.00;;;28.90;1.00;;;;;;5078810;28;20442;-69
2021/06/06 10:58:48;;;;;;;4.50;4.13;;;28.90;1.00;;;;;;5078980;28;20769;-69
2021/06/06 11:01:28;;;;;;;6.60;4.20;;;28.90;1.00;;;;;;5076986;28;20519;-69
2021/06/06 11:04:10;;;;;;;5.10;4.50;;;29.00;1.00;;;;;;5078845;28;20941;-69
2021/06/06 11:06:38;;;;;;;4.37;4.07;;;29.00;1.00;;;;;;5078435;28;20454;-70
2021/06/06 11:09:07;;;;;;;4.57;4.13;;;29.10;1.00;;;;;;5079174;28;20481;-69
2021/06/06 11:11:39;;;;;;;4.43;4.10;;;29.20;1.00;;;;;;5078494;28;20468;-70
2021/06/06 11:14:16;;;;;;;4.70;4.40;;;29.30;1.00;;;;;;5078295;28;20449;-70
2021/06/06 11:16:44;;;;;;;4.53;4.17;;;29.50;1.00;;;;;;5078532;28;20442;-70
2021/06/06 11:19:15;;;;;;;4.10;3.80;;;29.50;1.00;;;;;;5078421;28;20458;-70
2021/06/06 11:21:48;;;;;;;4.60;4.30;;;29.40;1.00;;;;;;5078400;28;20529;-70
2021/06/06 11:24:38;;;;;;;4.50;4.00;;;29.50;1.00;;;;;;5078240;28;20466;-69
2021/06/06 11:27:28;;;;;;;3.60;3.30;;;30.00;1.00;;;;;;5078242;28;20895;-69
2021/06/06 11:29:59;;;;;;;4.27;3.90;;;30.80;1.00;;;;;;5078318;28;20453;-70
2021/06/06 11:32:29;;;;;;;4.10;3.80;;;31.70;1.00;;;;;;5078278;28;20434;-69
2021/06/06 11:35:25;;;;;;;4.67;3.50;;;32.80;1.00;;;;;;5078422;28;20492;-69
2021/06/06 11:37:55;;;;;;;3.00;2.80;;;33.90;1.00;;;;;;5055263;28;20595;-70
2021/06/06 11:40:30;;;;;;;4.00;3.70;;;34.60;1.00;;;;;;5079169;28;20480;-69
2021/06/06 11:43:00;;;;;;;4.10;3.80;;;35.20;1.00;;;;;;5078659;28;20462;-69
2021/06/06 11:45:29;;;;;;;3.97;3.67;;;35.80;1.00;;;;;;5078487;28;20523;-69
2021/06/06 11:47:59;;;;;;;3.60;3.40;;;36.50;1.00;;;;;;5078351;28;20473;-69
2021/06/06 11:50:28;;;;;;;3.77;3.57;;;37.00;1.00;;;;;;5077831;28;20462;-69
2021/06/06 11:53:01;;;;;;;3.60;3.30;;;37.60;1.00;;;;;;5077909;28;20454;-70
2021/06/06 11:55:31;;;;;;;3.57;3.27;;;38.10;1.00;;;;;;5077553;28;20899;-70
2021/06/06 11:58:08;;;;;;;4.43;4.13;;;38.00;1.00;;;;;;5078119;28;20438;-70
2021/06/06 12:00:38;;;;;;;4.57;4.27;;;37.50;1.00;;;;;;5078646;28;20438;-70
2021/06/06 12:03:13;;;;;;;4.07;3.77;;;36.70;1.00;;;;;;5078174;28;20462;-70
2021/06/06 12:05:51;;;;;;;4.00;3.70;;;36.40;1.00;;;;;;5078014;28;20439;-70
2021/06/06 12:08:18;;;;;;;4.10;3.70;;;36.60;1.00;;;;;;5077939;28;20503;-68
2021/06/06 12:10:56;;;;;;;5.00;4.07;;;37.20;1.00;;;;;;5077814;28;20458;-70
2021/06/06 12:13:27;;;;;;;4.03;3.83;;;37.60;1.00;;;;;;5078375;28;20447;-70
2021/06/06 12:16:05;;;;;;;3.97;3.67;;;38.30;1.00;;;;;;5079197;28;20875;-68
2021/06/06 12:18:34;;;;;;;3.83;3.53;;;39.00;1.00;;;;;;5077634;28;20776;-68
2021/06/06 12:21:04;;;;;;;3.40;3.10;;;39.60;1.00;;;;;;5077403;28;20518;-69
2021/06/06 12:23:36;;;;;;;3.30;3.10;;;40.00;1.00;;;;;;5076911;28;20486;-69
2021/06/06 12:26:12;;;;;;;3.60;3.03;;;39.90;1.00;;;;;;5077345;28;20874;-69
2021/06/06 12:28:44;;;;;;;3.70;3.50;;;39.80;1.00;;;;;;5077315;28;20454;-68
2021/06/06 12:31:22;;;;;;;3.57;3.27;;;39.60;1.00;;;;;;5077798;28;20455;-69
2021/06/06 12:33:49;;;;;;;3.40;3.20;;;39.50;1.00;;;;;;5076884;28;20434;-68
2021/06/06 12:36:19;;;;;;;3.20;3.00;;;39.40;1.00;;;;;;5076908;28;20458;-69
2021/06/06 12:38:49;;;;;;;4.50;4.20;;;39.40;1.00;;;;;;5077068;28;20438;-70
2021/06/06 12:41:16;;;;;;;4.33;3.93;;;39.10;1.00;;;;;;5077203;28;20945;-69
2021/06/06 12:43:51;;;;;;;4.30;3.70;;;38.30;1.00;;;;;;5078109;28;20478;-68
2021/06/06 12:46:18;;;;;;;3.90;3.60;;;37.50;1.00;;;;;;5077856;28;20530;-69
2021/06/06 12:48:59;;;;;;;3.60;3.40;;;36.60;1.00;;;;;;5077426;28;20454;-68
2021/06/06 12:51:30;;;;;;;4.10;3.40;;;36.30;1.00;;;;;;5078276;28;20442;-70
2021/06/06 12:54:14;;;;;;;4.07;3.67;;;36.70;1.00;;;;;;5078641;28;20443;-69
2021/06/06 12:56:40;;;;;;;4.27;3.87;;;37.20;1.00;;;;;;5078534;28;20438;-69
2021/06/06 12:59:12;;;;;;;3.90;3.70;;;37.70;1.00;;;;;;5078081;28;20454;-69
2021/06/06 13:01:39;;;;;;;3.63;3.43;;;37.70;1.00;;;;;;5078867;28;20442;-70
2021/06/06 13:04:19;;;;;;;3.70;3.40;;;37.40;1.00;;;;;;5078350;28;20966;-70